sensor_id;sensor_type;location;lat;lon;timestamp;P1;durP1;ratioP1;P2;durP2;ratioP2
12228;SDS011;6177;52.402;9.800;2023-03-31T00:00:26;6.50;;;3.17;;
12228;SDS011;6177;52.402;9.800;2023-03-31T00:03:17;3.60;;;2.63;;
12228;SDS011;6177;52.402;9.800;2023-03-31T00:06:11;4.53;;;2.77;;
12228;SDS011;6177;52.402;9.800;2023-03-31T00:09:11;2.87;;;2.30;;
12228;SDS011;6177;52.402;9.800;2023-03-31T00:12:07;4.50;;;2.60;;
12228;SDS011;6177;52.402;9.800;2023-03-31T00:14:59;4.13;;;2.20;;
12228;SDS011;6177;52.402;9.800;2023-03-31T00:17:49;2.77;;;2.20;;
12228;SDS011;6177;52.402;9.800;2023-03-31T00:20:40;2.97;;;2.23;;
12228;SDS011;6177;52.402;9.800;2023-03-31T00:23:31;2.33;;;1.93;;
12228;SDS011;6177;52.402;9.800;2023-03-31T00:26:23;3.70;;;2.27;;
12228;SDS011;6177;52.402;9.800;2023-03-31T00:29:13;3.33;;;2.03;;
12228;SDS011;6177;52.402;9.800;2023-03-31T00:32:05;2.80;;;1.90;;
12228;SDS011;6177;52.402;9.800;2023-03-31T00:34:55;2.53;;;1.90;;
12228;SDS011;6177;52.402;9.800;2023-03-31T00:37:47;4.57;;;2.10;;
12228;SDS011;6177;52.402;9.800;2023-03-31T00:40:42;4.77;;;1.70;;
12228;SDS011;6177;52.402;9.800;2023-03-31T00:43:36;4.77;;;2.03;;
12228;SDS011;6177;52.402;9.800;2023-03-31T00:49:43;4.30;;;2.07;;
12228;SDS011;6177;52.402;9.800;2023-03-31T00:52:40;4.23;;;2.13;;
12228;SDS011;6177;52.402;9.800;2023-03-31T00:55:35;3.03;;;1.90;;
12228;SDS011;6177;52.402;9.800;2023-03-31T00:58:27;2.53;;;1.67;;
12228;SDS011;6177;52.402;9.800;2023-03-31T01:01:19;2.40;;;1.60;;
12228;SDS011;6177;52.402;9.800;2023-03-31T01:04:12;2.13;;;1.40;;
12228;SDS011;6177;52.402;9.800;2023-03-31T01:07:07;3.33;;;1.57;;
12228;SDS011;6177;52.402;9.800;2023-03-31T01:10:19;6.27;;;2.10;;
12228;SDS011;6177;52.402;9.800;2023-03-31T01:13:12;1.63;;;1.47;;
12228;SDS011;6177;52.402;9.800;2023-03-31T01:16:03;4.27;;;1.80;;
12228;SDS011;6177;52.402;9.800;2023-03-31T01:18:54;5.73;;;1.73;;
12228;SDS011;6177;52.402;9.800;2023-03-31T01:22:02;5.23;;;1.80;;
12228;SDS011;6177;52.402;9.800;2023-03-31T01:25:17;6.03;;;2.03;;
12228;SDS011;6177;52.402;9.800;2023-03-31T01:28:19;3.20;;;1.93;;
12228;SDS011;6177;52.402;9.800;2023-03-31T01:37:34;4.40;;;1.83;;
12228;SDS011;6177;52.402;9.800;2023-03-31T01:40:34;3.43;;;1.70;;
12228;SDS011;6177;52.402;9.800;2023-03-31T01:43:55;2.37;;;1.57;;
12228;SDS011;6177;52.402;9.800;2023-03-31T01:47:08;3.23;;;1.73;;
12228;SDS011;6177;52.402;9.800;2023-03-31T01:50:04;2.97;;;1.80;;
12228;SDS011;6177;52.402;9.800;2023-03-31T01:53:09;4.27;;;1.73;;
12228;SDS011;6177;52.402;9.800;2023-03-31T01:59:12;2.13;;;1.80;;
12228;SDS011;6177;52.402;9.800;2023-03-31T02:05:09;6.13;;;1.90;;
12228;SDS011;6177;52.402;9.800;2023-03-31T02:08:05;2.50;;;1.70;;
12228;SDS011;6177;52.402;9.800;2023-03-31T02:10:59;2.97;;;1.90;;
12228;SDS011;6177;52.402;9.800;2023-03-31T02:13:50;3.20;;;1.87;;
12228;SDS011;6177;52.402;9.800;2023-03-31T02:16:42;6.00;;;2.37;;
12228;SDS011;6177;52.402;9.800;2023-03-31T02:19:37;4.17;;;2.03;;
12228;SDS011;6177;52.402;9.800;2023-03-31T02:22:30;4.20;;;1.80;;
12228;SDS011;6177;52.402;9.800;2023-03-31T02:25:24;2.20;;;1.40;;
12228;SDS011;6177;52.402;9.800;2023-03-31T02:28:22;5.10;;;2.27;;
12228;SDS011;6177;52.402;9.800;2023-03-31T02:34:33;2.30;;;1.77;;
12228;SDS011;6177;52.402;9.800;2023-03-31T02:37:25;2.93;;;1.97;;
12228;SDS011;6177;52.402;9.800;2023-03-31T02:40:17;2.37;;;1.90;;
12228;SDS011;6177;52.402;9.800;2023-03-31T02:43:10;4.10;;;1.90;;
12228;SDS011;6177;52.402;9.800;2023-03-31T02:46:02;3.87;;;2.10;;
12228;SDS011;6177;52.402;9.800;2023-03-31T02:48:54;4.43;;;2.63;;
12228;SDS011;6177;52.402;9.800;2023-03-31T02:58:32;3.17;;;1.57;;
12228;SDS011;6177;52.402;9.800;2023-03-31T03:05:15;3.43;;;2.10;;
12228;SDS011;6177;52.402;9.800;2023-03-31T03:15:04;3.37;;;1.40;;
12228;SDS011;6177;52.402;9.800;2023-03-31T03:18:01;4.03;;;1.77;;
12228;SDS011;6177;52.402;9.800;2023-03-31T03:20:52;2.47;;;2.00;;
12228;SDS011;6177;52.402;9.800;2023-03-31T03:23:44;4.23;;;2.10;;
12228;SDS011;6177;52.402;9.800;2023-03-31T03:26:35;4.00;;;1.77;;
12228;SDS011;6177;52.402;9.800;2023-03-31T03:29:26;3.73;;;1.60;;
12228;SDS011;6177;52.402;9.800;2023-03-31T03:32:16;1.20;;;1.10;;
12228;SDS011;6177;52.402;9.800;2023-03-31T03:35:08;3.30;;;1.20;;
12228;SDS011;6177;52.402;9.800;2023-03-31T03:37:58;2.67;;;1.40;;
12228;SDS011;6177;52.402;9.800;2023-03-31T03:40:53;2.33;;;1.43;;
12228;SDS011;6177;52.402;9.800;2023-03-31T03:43:44;3.53;;;1.50;;
12228;SDS011;6177;52.402;9.800;2023-03-31T03:46:35;2.23;;;1.57;;
12228;SDS011;6177;52.402;9.800;2023-03-31T03:49:26;1.97;;;1.23;;
12228;SDS011;6177;52.402;9.800;2023-03-31T03:52:17;3.43;;;1.47;;
12228;SDS011;6177;52.402;9.800;2023-03-31T03:55:08;3.67;;;1.50;;
12228;SDS011;6177;52.402;9.800;2023-03-31T03:57:59;3.07;;;1.60;;
12228;SDS011;6177;52.402;9.800;2023-03-31T04:00:50;5.67;;;1.70;;
12228;SDS011;6177;52.402;9.800;2023-03-31T04:03:40;6.07;;;1.13;;
12228;SDS011;6177;52.402;9.800;2023-03-31T04:06:32;3.83;;;1.63;;
12228;SDS011;6177;52.402;9.800;2023-03-31T04:09:23;1.60;;;1.17;;
12228;SDS011;6177;52.402;9.800;2023-03-31T04:12:14;3.80;;;1.30;;
12228;SDS011;6177;52.402;9.800;2023-03-31T04:15:05;2.07;;;1.10;;
12228;SDS011;6177;52.402;9.800;2023-03-31T04:17:57;1.63;;;1.03;;
12228;SDS011;6177;52.402;9.800;2023-03-31T04:20:48;3.60;;;1.27;;
12228;SDS011;6177;52.402;9.800;2023-03-31T04:23:44;1.90;;;1.40;;
12228;SDS011;6177;52.402;9.800;2023-03-31T04:26:37;1.73;;;1.63;;
12228;SDS011;6177;52.402;9.800;2023-03-31T04:29:33;2.10;;;1.17;;
12228;SDS011;6177;52.402;9.800;2023-03-31T04:32:25;1.70;;;1.10;;
12228;SDS011;6177;52.402;9.800;2023-03-31T04:35:18;4.23;;;1.53;;
12228;SDS011;6177;52.402;9.800;2023-03-31T04:38:10;1.87;;;1.47;;
12228;SDS011;6177;52.402;9.800;2023-03-31T04:41:01;4.43;;;1.50;;
12228;SDS011;6177;52.402;9.800;2023-03-31T04:43:52;2.17;;;1.00;;
12228;SDS011;6177;52.402;9.800;2023-03-31T04:46:43;2.10;;;1.30;;
12228;SDS011;6177;52.402;9.800;2023-03-31T04:49:34;2.90;;;1.63;;
12228;SDS011;6177;52.402;9.800;2023-03-31T04:52:25;1.97;;;1.27;;
12228;SDS011;6177;52.402;9.800;2023-03-31T04:55:17;4.90;;;1.10;;
12228;SDS011;6177;52.402;9.800;2023-03-31T04:58:08;3.20;;;1.03;;
12228;SDS011;6177;52.402;9.800;2023-03-31T05:00:59;4.43;;;1.47;;
12228;SDS011;6177;52.402;9.800;2023-03-31T05:03:49;2.93;;;1.20;;
12228;SDS011;6177;52.402;9.800;2023-03-31T05:06:40;1.73;;;1.10;;
12228;SDS011;6177;52.402;9.800;2023-03-31T05:09:31;3.97;;;1.30;;
12228;SDS011;6177;52.402;9.800;2023-03-31T05:12:22;1.97;;;0.90;;
12228;SDS011;6177;52.402;9.800;2023-03-31T05:15:13;1.50;;;1.10;;
12228;SDS011;6177;52.402;9.800;2023-03-31T05:18:04;3.87;;;1.27;;
12228;SDS011;6177;52.402;9.800;2023-03-31T05:20:56;3.47;;;1.33;;
12228;SDS011;6177;52.402;9.800;2023-03-31T05:23:47;3.73;;;1.47;;
12228;SDS011;6177;52.402;9.800;2023-03-31T05:26:37;2.70;;;1.20;;
12228;SDS011;6177;52.402;9.800;2023-03-31T05:29:29;3.30;;;1.50;;
12228;SDS011;6177;52.402;9.800;2023-03-31T05:32:20;1.67;;;1.33;;
12228;SDS011;6177;52.402;9.800;2023-03-31T05:35:11;3.03;;;1.70;;
12228;SDS011;6177;52.402;9.800;2023-03-31T05:38:02;2.60;;;1.40;;
12228;SDS011;6177;52.402;9.800;2023-03-31T05:40:54;2.10;;;1.87;;
12228;SDS011;6177;52.402;9.800;2023-03-31T05:43:45;4.30;;;1.40;;
12228;SDS011;6177;52.402;9.800;2023-03-31T05:46:36;1.33;;;1.23;;
12228;SDS011;6177;52.402;9.800;2023-03-31T05:49:27;1.60;;;1.20;;
12228;SDS011;6177;52.402;9.800;2023-03-31T05:52:18;2.53;;;1.20;;
12228;SDS011;6177;52.402;9.800;2023-03-31T05:55:09;7.33;;;1.87;;
12228;SDS011;6177;52.402;9.800;2023-03-31T05:58:00;2.70;;;1.27;;
12228;SDS011;6177;52.402;9.800;2023-03-31T06:00:59;3.77;;;1.23;;
12228;SDS011;6177;52.402;9.800;2023-03-31T06:03:57;2.37;;;1.43;;
12228;SDS011;6177;52.402;9.800;2023-03-31T06:06:48;3.23;;;1.40;;
12228;SDS011;6177;52.402;9.800;2023-03-31T06:09:40;2.40;;;1.33;;
12228;SDS011;6177;52.402;9.800;2023-03-31T06:12:31;2.60;;;1.00;;
12228;SDS011;6177;52.402;9.800;2023-03-31T06:15:22;1.13;;;1.00;;
12228;SDS011;6177;52.402;9.800;2023-03-31T06:18:12;3.27;;;1.17;;
12228;SDS011;6177;52.402;9.800;2023-03-31T06:21:04;2.23;;;1.20;;
12228;SDS011;6177;52.402;9.800;2023-03-31T06:23:55;2.50;;;1.30;;
12228;SDS011;6177;52.402;9.800;2023-03-31T06:26:47;5.20;;;1.20;;
12228;SDS011;6177;52.402;9.800;2023-03-31T06:29:38;2.93;;;1.43;;
12228;SDS011;6177;52.402;9.800;2023-03-31T06:32:29;2.50;;;1.67;;
12228;SDS011;6177;52.402;9.800;2023-03-31T06:35:20;2.70;;;1.20;;
12228;SDS011;6177;52.402;9.800;2023-03-31T06:38:11;1.90;;;0.90;;
12228;SDS011;6177;52.402;9.800;2023-03-31T06:41:02;4.83;;;1.20;;
12228;SDS011;6177;52.402;9.800;2023-03-31T06:43:53;3.93;;;1.23;;
12228;SDS011;6177;52.402;9.800;2023-03-31T06:46:44;1.83;;;0.90;;
12228;SDS011;6177;52.402;9.800;2023-03-31T06:49:35;2.23;;;1.00;;
12228;SDS011;6177;52.402;9.800;2023-03-31T06:52:25;1.77;;;0.90;;
12228;SDS011;6177;52.402;9.800;2023-03-31T06:55:16;2.83;;;1.47;;
12228;SDS011;6177;52.402;9.800;2023-03-31T06:58:08;4.03;;;1.03;;
12228;SDS011;6177;52.402;9.800;2023-03-31T07:01:00;2.67;;;1.00;;
12228;SDS011;6177;52.402;9.800;2023-03-31T07:03:52;3.93;;;1.10;;
12228;SDS011;6177;52.402;9.800;2023-03-31T07:06:43;5.77;;;1.50;;
12228;SDS011;6177;52.402;9.800;2023-03-31T07:09:37;4.43;;;1.57;;
12228;SDS011;6177;52.402;9.800;2023-03-31T07:12:28;1.70;;;1.10;;
12228;SDS011;6177;52.402;9.800;2023-03-31T07:15:23;2.73;;;1.20;;
12228;SDS011;6177;52.402;9.800;2023-03-31T07:18:14;1.60;;;1.10;;
12228;SDS011;6177;52.402;9.800;2023-03-31T07:21:06;2.63;;;1.17;;
12228;SDS011;6177;52.402;9.800;2023-03-31T07:23:58;4.03;;;1.40;;
12228;SDS011;6177;52.402;9.800;2023-03-31T07:26:49;3.40;;;1.73;;
12228;SDS011;6177;52.402;9.800;2023-03-31T07:29:40;2.57;;;1.03;;
12228;SDS011;6177;52.402;9.800;2023-03-31T07:32:31;1.37;;;0.90;;
12228;SDS011;6177;52.402;9.800;2023-03-31T07:35:22;1.87;;;1.23;;
12228;SDS011;6177;52.402;9.800;2023-03-31T07:38:13;2.10;;;1.33;;
12228;SDS011;6177;52.402;9.800;2023-03-31T07:41:04;1.30;;;1.03;;
12228;SDS011;6177;52.402;9.800;2023-03-31T07:43:55;2.43;;;1.17;;
12228;SDS011;6177;52.402;9.800;2023-03-31T07:46:46;3.53;;;1.37;;
12228;SDS011;6177;52.402;9.800;2023-03-31T07:49:37;3.07;;;1.50;;
12228;SDS011;6177;52.402;9.800;2023-03-31T07:52:28;1.83;;;1.07;;
12228;SDS011;6177;52.402;9.800;2023-03-31T07:55:19;1.73;;;1.00;;
12228;SDS011;6177;52.402;9.800;2023-03-31T07:58:10;1.90;;;1.27;;
12228;SDS011;6177;52.402;9.800;2023-03-31T08:01:01;1.33;;;0.83;;
12228;SDS011;6177;52.402;9.800;2023-03-31T08:03:52;2.73;;;1.30;;
12228;SDS011;6177;52.402;9.800;2023-03-31T08:06:44;1.77;;;1.30;;
12228;SDS011;6177;52.402;9.800;2023-03-31T08:09:35;4.50;;;1.30;;
12228;SDS011;6177;52.402;9.800;2023-03-31T08:12:26;2.23;;;1.00;;
12228;SDS011;6177;52.402;9.800;2023-03-31T08:15:17;3.20;;;1.23;;
12228;SDS011;6177;52.402;9.800;2023-03-31T08:18:08;2.87;;;1.20;;
12228;SDS011;6177;52.402;9.800;2023-03-31T08:20:58;3.77;;;0.93;;
12228;SDS011;6177;52.402;9.800;2023-03-31T08:23:48;5.77;;;1.47;;
12228;SDS011;6177;52.402;9.800;2023-03-31T08:26:40;1.17;;;1.07;;
12228;SDS011;6177;52.402;9.800;2023-03-31T08:29:31;2.70;;;0.93;;
12228;SDS011;6177;52.402;9.800;2023-03-31T08:32:22;3.20;;;1.10;;
12228;SDS011;6177;52.402;9.800;2023-03-31T08:35:14;1.10;;;0.80;;
12228;SDS011;6177;52.402;9.800;2023-03-31T08:38:05;4.67;;;1.40;;
12228;SDS011;6177;52.402;9.800;2023-03-31T08:41:02;4.07;;;1.10;;
12228;SDS011;6177;52.402;9.800;2023-03-31T08:43:54;2.30;;;1.40;;
12228;SDS011;6177;52.402;9.800;2023-03-31T08:46:45;1.47;;;1.00;;
12228;SDS011;6177;52.402;9.800;2023-03-31T08:49:40;2.53;;;1.03;;
12228;SDS011;6177;52.402;9.800;2023-03-31T08:52:43;2.43;;;1.43;;
12228;SDS011;6177;52.402;9.800;2023-03-31T08:55:47;2.20;;;1.07;;
12228;SDS011;6177;52.402;9.800;2023-03-31T08:58:39;2.70;;;1.07;;
12228;SDS011;6177;52.402;9.800;2023-03-31T09:08:08;1.37;;;1.17;;
12228;SDS011;6177;52.402;9.800;2023-03-31T09:14:11;2.47;;;1.20;;
12228;SDS011;6177;52.402;9.800;2023-03-31T09:17:10;1.40;;;1.30;;
12228;SDS011;6177;52.402;9.800;2023-03-31T09:20:36;2.17;;;1.17;;
12228;SDS011;6177;52.402;9.800;2023-03-31T09:23:51;1.23;;;1.13;;
12228;SDS011;6177;52.402;9.800;2023-03-31T09:27:00;1.13;;;1.03;;
12228;SDS011;6177;52.402;9.800;2023-03-31T09:29:54;2.20;;;1.20;;
12228;SDS011;6177;52.402;9.800;2023-03-31T09:32:48;1.53;;;1.00;;
12228;SDS011;6177;52.402;9.800;2023-03-31T09:35:42;2.07;;;1.20;;
12228;SDS011;6177;52.402;9.800;2023-03-31T09:38:33;2.80;;;1.20;;
12228;SDS011;6177;52.402;9.800;2023-03-31T09:41:24;3.43;;;1.00;;
12228;SDS011;6177;52.402;9.800;2023-03-31T09:44:25;2.47;;;1.20;;
12228;SDS011;6177;52.402;9.800;2023-03-31T09:50:29;2.43;;;0.90;;
12228;SDS011;6177;52.402;9.800;2023-03-31T09:53:28;2.23;;;0.83;;
12228;SDS011;6177;52.402;9.800;2023-03-31T09:59:32;1.77;;;0.60;;
12228;SDS011;6177;52.402;9.800;2023-03-31T10:02:28;3.30;;;1.00;;
12228;SDS011;6177;52.402;9.800;2023-03-31T10:05:28;1.07;;;0.90;;
12228;SDS011;6177;52.402;9.800;2023-03-31T10:08:23;1.10;;;0.73;;
12228;SDS011;6177;52.402;9.800;2023-03-31T10:11:34;1.20;;;1.00;;
12228;SDS011;6177;52.402;9.800;2023-03-31T10:14:27;1.00;;;1.00;;
12228;SDS011;6177;52.402;9.800;2023-03-31T10:17:23;1.33;;;0.80;;
12228;SDS011;6177;52.402;9.800;2023-03-31T10:20:30;1.43;;;0.70;;
12228;SDS011;6177;52.402;9.800;2023-03-31T10:23:28;0.93;;;0.43;;
12228;SDS011;6177;52.402;9.800;2023-03-31T10:26:22;0.43;;;0.43;;
12228;SDS011;6177;52.402;9.800;2023-03-31T10:29:18;1.93;;;0.60;;
12228;SDS011;6177;52.402;9.800;2023-03-31T10:32:17;1.03;;;0.93;;
12228;SDS011;6177;52.402;9.800;2023-03-31T10:35:33;0.77;;;0.60;;
12228;SDS011;6177;52.402;9.800;2023-03-31T10:38:25;0.83;;;0.40;;
12228;SDS011;6177;52.402;9.800;2023-03-31T10:41:20;0.70;;;0.63;;
12228;SDS011;6177;52.402;9.800;2023-03-31T10:47:27;0.57;;;0.40;;
12228;SDS011;6177;52.402;9.800;2023-03-31T10:50:29;1.50;;;0.77;;
12228;SDS011;6177;52.402;9.800;2023-03-31T10:53:21;1.73;;;0.60;;
12228;SDS011;6177;52.402;9.800;2023-03-31T10:56:15;0.40;;;0.40;;
12228;SDS011;6177;52.402;9.800;2023-03-31T11:05:38;0.67;;;0.67;;
12228;SDS011;6177;52.402;9.800;2023-03-31T11:08:44;1.73;;;0.60;;
12228;SDS011;6177;52.402;9.800;2023-03-31T11:14:41;0.43;;;0.43;;
12228;SDS011;6177;52.402;9.800;2023-03-31T11:20:51;0.37;;;0.30;;
12228;SDS011;6177;52.402;9.800;2023-03-31T11:42:38;0.53;;;0.50;;
12228;SDS011;6177;52.402;9.800;2023-03-31T11:45:44;0.43;;;0.40;;
12228;SDS011;6177;52.402;9.800;2023-03-31T11:52:02;0.53;;;0.30;;
12228;SDS011;6177;52.402;9.800;2023-03-31T12:01:08;0.77;;;0.40;;
12228;SDS011;6177;52.402;9.800;2023-03-31T12:04:22;0.43;;;0.43;;
12228;SDS011;6177;52.402;9.800;2023-03-31T12:07:31;0.63;;;0.37;;
12228;SDS011;6177;52.402;9.800;2023-03-31T12:10:30;0.43;;;0.43;;
12228;SDS011;6177;52.402;9.800;2023-03-31T12:13:44;1.23;;;0.60;;
12228;SDS011;6177;52.402;9.800;2023-03-31T12:16:41;1.10;;;0.53;;
12228;SDS011;6177;52.402;9.800;2023-03-31T12:22:29;0.57;;;0.50;;
12228;SDS011;6177;52.402;9.800;2023-03-31T12:25:22;0.50;;;0.50;;
12228;SDS011;6177;52.402;9.800;2023-03-31T12:28:15;0.57;;;0.57;;
12228;SDS011;6177;52.402;9.800;2023-03-31T12:31:09;0.50;;;0.50;;
12228;SDS011;6177;52.402;9.800;2023-03-31T12:34:02;1.00;;;1.00;;
12228;SDS011;6177;52.402;9.800;2023-03-31T12:37:04;0.50;;;0.50;;
12228;SDS011;6177;52.402;9.800;2023-03-31T12:46:44;0.50;;;0.50;;
12228;SDS011;6177;52.402;9.800;2023-03-31T12:53:02;1.37;;;0.50;;
12228;SDS011;6177;52.402;9.800;2023-03-31T12:55:58;0.57;;;0.57;;
12228;SDS011;6177;52.402;9.800;2023-03-31T12:58:49;1.20;;;0.90;;
12228;SDS011;6177;52.402;9.800;2023-03-31T13:04:59;0.40;;;0.40;;
12228;SDS011;6177;52.402;9.800;2023-03-31T13:11:48;1.13;;;0.75;;
12228;SDS011;6177;52.402;9.800;2023-03-31T13:14:39;0.63;;;0.52;;
12228;SDS011;6177;52.402;9.800;2023-03-31T13:17:36;0.40;;;0.40;;
12228;SDS011;6177;52.402;9.800;2023-03-31T13:23:21;0.68;;;0.68;;
12228;SDS011;6177;52.402;9.800;2023-03-31T13:32:25;0.50;;;0.50;;
12228;SDS011;6177;52.402;9.800;2023-03-31T13:35:19;1.15;;;0.60;;
12228;SDS011;6177;52.402;9.800;2023-03-31T13:42:11;0.70;;;0.70;;
12228;SDS011;6177;52.402;9.800;2023-03-31T13:44:47;1.88;;;0.70;;
12228;SDS011;6177;52.402;9.800;2023-03-31T13:47:49;0.60;;;0.60;;
12228;SDS011;6177;52.402;9.800;2023-03-31T14:03:26;1.58;;;1.00;;
12228;SDS011;6177;52.402;9.800;2023-03-31T14:12:31;3.60;;;1.60;;
12228;SDS011;6177;52.402;9.800;2023-03-31T14:15:23;3.20;;;1.23;;
12228;SDS011;6177;52.402;9.800;2023-03-31T14:18:22;1.50;;;1.07;;
12228;SDS011;6177;52.402;9.800;2023-03-31T14:21:33;2.80;;;1.20;;
12228;SDS011;6177;52.402;9.800;2023-03-31T14:24:32;2.57;;;1.10;;
12228;SDS011;6177;52.402;9.800;2023-03-31T14:37:03;3.47;;;1.80;;
12228;SDS011;6177;52.402;9.800;2023-03-31T14:39:57;2.13;;;1.37;;
12228;SDS011;6177;52.402;9.800;2023-03-31T14:42:48;2.43;;;1.60;;
12228;SDS011;6177;52.402;9.800;2023-03-31T14:45:39;2.20;;;2.10;;
12228;SDS011;6177;52.402;9.800;2023-03-31T14:48:34;2.20;;;2.00;;
12228;SDS011;6177;52.402;9.800;2023-03-31T14:51:32;2.67;;;1.70;;
12228;SDS011;6177;52.402;9.800;2023-03-31T14:54:23;2.20;;;1.52;;
12228;SDS011;6177;52.402;9.800;2023-03-31T14:57:18;2.35;;;1.15;;
12228;SDS011;6177;52.402;9.800;2023-03-31T15:00:24;1.80;;;1.37;;
12228;SDS011;6177;52.402;9.800;2023-03-31T15:03:16;1.42;;;1.00;;
12228;SDS011;6177;52.402;9.800;2023-03-31T15:06:08;1.65;;;1.00;;
12228;SDS011;6177;52.402;9.800;2023-03-31T15:09:01;1.27;;;1.17;;
12228;SDS011;6177;52.402;9.800;2023-03-31T15:12:00;4.70;;;1.52;;
12228;SDS011;6177;52.402;9.800;2023-03-31T15:14:57;2.83;;;1.10;;
12228;SDS011;6177;52.402;9.800;2023-03-31T15:17:52;2.43;;;1.70;;
12228;SDS011;6177;52.402;9.800;2023-03-31T15:20:43;4.20;;;1.33;;
12228;SDS011;6177;52.402;9.800;2023-03-31T15:23:34;2.80;;;2.03;;
12228;SDS011;6177;52.402;9.800;2023-03-31T15:26:33;2.17;;;1.87;;
12228;SDS011;6177;52.402;9.800;2023-03-31T15:29:31;4.33;;;2.27;;
12228;SDS011;6177;52.402;9.800;2023-03-31T15:32:26;5.30;;;2.33;;
12228;SDS011;6177;52.402;9.800;2023-03-31T15:35:22;4.73;;;2.00;;
12228;SDS011;6177;52.402;9.800;2023-03-31T15:38:15;3.20;;;2.30;;
12228;SDS011;6177;52.402;9.800;2023-03-31T15:41:16;2.07;;;1.77;;
12228;SDS011;6177;52.402;9.800;2023-03-31T15:44:26;2.03;;;1.50;;
12228;SDS011;6177;52.402;9.800;2023-03-31T15:47:23;1.60;;;1.13;;
12228;SDS011;6177;52.402;9.800;2023-03-31T15:50:21;2.33;;;1.37;;
12228;SDS011;6177;52.402;9.800;2023-03-31T15:56:41;3.67;;;1.30;;
12228;SDS011;6177;52.402;9.800;2023-03-31T16:02:41;3.57;;;1.33;;
12228;SDS011;6177;52.402;9.800;2023-03-31T16:05:38;2.33;;;1.23;;
12228;SDS011;6177;52.402;9.800;2023-03-31T16:11:32;2.60;;;1.80;;
12228;SDS011;6177;52.402;9.800;2023-03-31T16:14:33;2.47;;;1.80;;
12228;SDS011;6177;52.402;9.800;2023-03-31T16:23:11;3.57;;;1.97;;
12228;SDS011;6177;52.402;9.800;2023-03-31T16:26:04;2.17;;;1.30;;
12228;SDS011;6177;52.402;9.800;2023-03-31T16:28:56;1.70;;;1.60;;
12228;SDS011;6177;52.402;9.800;2023-03-31T16:31:47;2.03;;;1.27;;
12228;SDS011;6177;52.402;9.800;2023-03-31T16:34:55;2.73;;;2.57;;
12228;SDS011;6177;52.402;9.800;2023-03-31T16:37:46;3.63;;;2.40;;
12228;SDS011;6177;52.402;9.800;2023-03-31T16:40:38;3.10;;;2.47;;
12228;SDS011;6177;52.402;9.800;2023-03-31T16:43:30;2.10;;;2.00;;
12228;SDS011;6177;52.402;9.800;2023-03-31T16:46:22;2.20;;;2.00;;
12228;SDS011;6177;52.402;9.800;2023-03-31T16:49:13;2.33;;;2.20;;
12228;SDS011;6177;52.402;9.800;2023-03-31T16:52:04;1.93;;;1.80;;
12228;SDS011;6177;52.402;9.800;2023-03-31T16:54:55;2.57;;;2.00;;
12228;SDS011;6177;52.402;9.800;2023-03-31T16:57:46;2.37;;;2.10;;
12228;SDS011;6177;52.402;9.800;2023-03-31T17:00:37;4.40;;;2.20;;
12228;SDS011;6177;52.402;9.800;2023-03-31T17:03:29;3.90;;;2.63;;
12228;SDS011;6177;52.402;9.800;2023-03-31T17:06:20;2.20;;;2.00;;
12228;SDS011;6177;52.402;9.800;2023-03-31T17:09:11;1.77;;;1.67;;
12228;SDS011;6177;52.402;9.800;2023-03-31T17:12:01;4.20;;;2.33;;
12228;SDS011;6177;52.402;9.800;2023-03-31T17:14:52;2.77;;;2.27;;
12228;SDS011;6177;52.402;9.800;2023-03-31T17:17:43;2.30;;;1.93;;
12228;SDS011;6177;52.402;9.800;2023-03-31T17:20:34;2.80;;;1.83;;
12228;SDS011;6177;52.402;9.800;2023-03-31T17:23:25;3.50;;;1.90;;
12228;SDS011;6177;52.402;9.800;2023-03-31T17:26:16;2.90;;;2.47;;
12228;SDS011;6177;52.402;9.800;2023-03-31T17:29:07;3.27;;;1.87;;
12228;SDS011;6177;52.402;9.800;2023-03-31T17:31:58;2.07;;;1.90;;
12228;SDS011;6177;52.402;9.800;2023-03-31T17:34:49;5.17;;;2.30;;
12228;SDS011;6177;52.402;9.800;2023-03-31T17:37:39;4.37;;;2.10;;
12228;SDS011;6177;52.402;9.800;2023-03-31T17:40:30;4.80;;;2.30;;
12228;SDS011;6177;52.402;9.800;2023-03-31T17:43:22;2.67;;;2.20;;
12228;SDS011;6177;52.402;9.800;2023-03-31T17:46:14;1.93;;;1.83;;
12228;SDS011;6177;52.402;9.800;2023-03-31T17:49:05;4.30;;;2.73;;
12228;SDS011;6177;52.402;9.800;2023-03-31T17:51:56;3.27;;;2.30;;
12228;SDS011;6177;52.402;9.800;2023-03-31T17:54:48;4.13;;;2.73;;
12228;SDS011;6177;52.402;9.800;2023-03-31T17:57:39;5.63;;;3.00;;
12228;SDS011;6177;52.402;9.800;2023-03-31T18:00:30;3.83;;;2.70;;
12228;SDS011;6177;52.402;9.800;2023-03-31T18:03:21;4.63;;;2.20;;
12228;SDS011;6177;52.402;9.800;2023-03-31T18:06:12;5.93;;;2.63;;
12228;SDS011;6177;52.402;9.800;2023-03-31T18:09:04;3.40;;;2.47;;
12228;SDS011;6177;52.402;9.800;2023-03-31T18:11:55;3.53;;;2.27;;
12228;SDS011;6177;52.402;9.800;2023-03-31T18:14:47;5.33;;;2.30;;
12228;SDS011;6177;52.402;9.800;2023-03-31T18:17:38;2.97;;;2.20;;
12228;SDS011;6177;52.402;9.800;2023-03-31T18:20:29;5.70;;;2.40;;
12228;SDS011;6177;52.402;9.800;2023-03-31T18:23:20;4.83;;;2.20;;
12228;SDS011;6177;52.402;9.800;2023-03-31T18:26:12;4.60;;;2.37;;
12228;SDS011;6177;52.402;9.800;2023-03-31T18:29:03;4.23;;;2.30;;
12228;SDS011;6177;52.402;9.800;2023-03-31T18:31:54;4.63;;;2.30;;
12228;SDS011;6177;52.402;9.800;2023-03-31T18:34:45;2.93;;;2.20;;
12228;SDS011;6177;52.402;9.800;2023-03-31T18:37:36;2.90;;;2.37;;
12228;SDS011;6177;52.402;9.800;2023-03-31T18:40:27;4.70;;;2.67;;
12228;SDS011;6177;52.402;9.800;2023-03-31T18:43:19;4.10;;;2.60;;
12228;SDS011;6177;52.402;9.800;2023-03-31T18:46:13;3.93;;;2.40;;
12228;SDS011;6177;52.402;9.800;2023-03-31T18:49:04;7.30;;;3.03;;
12228;SDS011;6177;52.402;9.800;2023-03-31T18:51:55;6.23;;;3.20;;
12228;SDS011;6177;52.402;9.800;2023-03-31T18:54:47;6.67;;;3.17;;
12228;SDS011;6177;52.402;9.800;2023-03-31T18:57:39;4.60;;;2.00;;
12228;SDS011;6177;52.402;9.800;2023-03-31T19:00:30;2.60;;;1.80;;
12228;SDS011;6177;52.402;9.800;2023-03-31T19:03:21;3.50;;;2.03;;
12228;SDS011;6177;52.402;9.800;2023-03-31T19:06:12;3.90;;;2.13;;
12228;SDS011;6177;52.402;9.800;2023-03-31T19:09:03;3.13;;;1.80;;
12228;SDS011;6177;52.402;9.800;2023-03-31T19:11:54;3.67;;;1.97;;
12228;SDS011;6177;52.402;9.800;2023-03-31T19:14:46;4.97;;;2.10;;
12228;SDS011;6177;52.402;9.800;2023-03-31T19:17:37;3.07;;;2.03;;
12228;SDS011;6177;52.402;9.800;2023-03-31T19:20:28;2.30;;;1.97;;
12228;SDS011;6177;52.402;9.800;2023-03-31T19:23:19;3.00;;;1.90;;
12228;SDS011;6177;52.402;9.800;2023-03-31T19:26:12;2.93;;;1.67;;
12228;SDS011;6177;52.402;9.800;2023-03-31T19:29:04;1.90;;;1.60;;
12228;SDS011;6177;52.402;9.800;2023-03-31T19:31:55;2.70;;;1.30;;
12228;SDS011;6177;52.402;9.800;2023-03-31T19:34:46;2.23;;;1.30;;
12228;SDS011;6177;52.402;9.800;2023-03-31T19:37:37;2.93;;;1.50;;
12228;SDS011;6177;52.402;9.800;2023-03-31T19:40:28;1.60;;;1.20;;
12228;SDS011;6177;52.402;9.800;2023-03-31T19:43:20;4.60;;;1.10;;
12228;SDS011;6177;52.402;9.800;2023-03-31T19:46:12;1.73;;;1.17;;
12228;SDS011;6177;52.402;9.800;2023-03-31T19:49:03;2.67;;;1.40;;
12228;SDS011;6177;52.402;9.800;2023-03-31T19:51:55;2.60;;;1.30;;
12228;SDS011;6177;52.402;9.800;2023-03-31T19:54:46;2.93;;;1.90;;
12228;SDS011;6177;52.402;9.800;2023-03-31T19:57:37;3.90;;;1.40;;
12228;SDS011;6177;52.402;9.800;2023-03-31T20:00:28;2.67;;;1.00;;
12228;SDS011;6177;52.402;9.800;2023-03-31T20:03:18;1.93;;;1.50;;
12228;SDS011;6177;52.402;9.800;2023-03-31T20:06:10;2.07;;;1.30;;
12228;SDS011;6177;52.402;9.800;2023-03-31T20:09:02;1.90;;;1.80;;
12228;SDS011;6177;52.402;9.800;2023-03-31T20:11:55;4.17;;;1.63;;
12228;SDS011;6177;52.402;9.800;2023-03-31T20:14:45;2.93;;;1.97;;
12228;SDS011;6177;52.402;9.800;2023-03-31T20:17:36;1.53;;;1.43;;
12228;SDS011;6177;52.402;9.800;2023-03-31T20:20:28;2.00;;;1.30;;
12228;SDS011;6177;52.402;9.800;2023-03-31T20:23:19;1.40;;;1.17;;
12228;SDS011;6177;52.402;9.800;2023-03-31T20:26:11;1.53;;;1.10;;
12228;SDS011;6177;52.402;9.800;2023-03-31T20:29:05;2.30;;;1.40;;
12228;SDS011;6177;52.402;9.800;2023-03-31T20:31:56;2.00;;;1.20;;
12228;SDS011;6177;52.402;9.800;2023-03-31T20:34:47;2.80;;;1.10;;